sensor_id;sensor_type;location;lat;lon;timestamp;noise_LAeq;noise_LA_min;noise_LA_max;noise_LA01;noise_LA95
84588;Laerm;74812;47.466;8.992;2024-02-15T03:45:28;43.24;41.22;48.32;;
84588;Laerm;74812;47.466;8.992;2024-02-15T03:47:54;43.02;40.03;48.16;;
84588;Laerm;74812;47.466;8.992;2024-02-15T03:50:20;43.50;41.06;49.92;;
84588;Laerm;74812;47.466;8.992;2024-02-15T03:52:49;44.36;41.53;54.50;;
84588;Laerm;74812;47.466;8.992;2024-02-15T03:55:15;44.02;41.14;52.58;;
84588;Laerm;74812;47.466;8.992;2024-02-15T03:57:40;44.04;41.46;50.27;;
84588;Laerm;74812;47.466;8.992;2024-02-15T04:00:06;44.01;40.98;48.87;;
84588;Laerm;74812;47.466;8.992;2024-02-15T04:02:33;44.00;41.06;51.73;;
84588;Laerm;74812;47.466;8.992;2024-02-15T04:05:00;44.37;41.53;51.93;;
84588;Laerm;74812;47.466;8.992;2024-02-15T04:07:26;44.95;42.35;50.58;;
84588;Laerm;74812;47.466;8.992;2024-02-15T04:09:52;46.56;42.98;59.62;;
84588;Laerm;74812;47.466;8.992;2024-02-15T04:12:17;45.62;42.29;53.01;;
84588;Laerm;74812;47.466;8.992;2024-02-15T04:14:46;45.13;42.76;49.73;;
84588;Laerm;74812;47.466;8.992;2024-02-15T04:17:11;45.73;42.76;50.25;;
84588;Laerm;74812;47.466;8.992;2024-02-15T04:19:45;46.16;42.53;51.71;;
84588;Laerm;74812;47.466;8.992;2024-02-15T04:22:11;45.39;42.93;50.41;;
84588;Laerm;74812;47.466;8.992;2024-02-15T04:24:37;46.43;43.24;55.44;;
84588;Laerm;74812;47.466;8.992;2024-02-15T04:27:05;46.42;43.49;52.22;;
84588;Laerm;74812;47.466;8.992;2024-02-15T04:29:33;46.32;43.34;53.38;;
84588;Laerm;74812;47.466;8.992;2024-02-15T04:31:58;48.01;43.72;57.75;;
84588;Laerm;74812;47.466;8.992;2024-02-15T04:34:24;47.52;44.03;55.84;;
84588;Laerm;74812;47.466;8.992;2024-02-15T04:36:49;48.78;43.94;54.81;;
84588;Laerm;74812;47.466;8.992;2024-02-15T04:39:16;48.04;43.90;55.92;;
84588;Laerm;74812;47.466;8.992;2024-02-15T04:41:52;47.41;43.63;52.89;;
84588;Laerm;74812;47.466;8.992;2024-02-15T04:44:17;48.50;44.54;60.44;;
84588;Laerm;74812;47.466;8.992;2024-02-15T04:46:48;47.91;44.43;55.64;;
84588;Laerm;74812;47.466;8.992;2024-02-15T04:49:15;48.95;44.83;56.28;;
84588;Laerm;74812;47.466;8.992;2024-02-15T04:51:43;49.02;43.81;62.82;;
84588;Laerm;74812;47.466;8.992;2024-02-15T04:54:09;52.71;44.39;69.86;;
84588;Laerm;74812;47.466;8.992;2024-02-15T04:56:38;48.97;43.81;63.29;;
84588;Laerm;74812;47.466;8.992;2024-02-15T04:59:04;48.86;44.51;59.09;;
84588;Laerm;74812;47.466;8.992;2024-02-15T05:01:34;50.89;44.39;62.19;;
84588;Laerm;74812;47.466;8.992;2024-02-15T05:03:59;53.20;46.13;66.51;;
84588;Laerm;74812;47.466;8.992;2024-02-15T05:06:25;49.62;44.31;72.52;;
84588;Laerm;74812;47.466;8.992;2024-02-15T05:08:55;49.71;44.11;63.94;;
84588;Laerm;74812;47.466;8.992;2024-02-15T05:11:21;48.68;44.23;62.74;;
84588;Laerm;74812;47.466;8.992;2024-02-15T05:13:47;49.30;44.11;63.21;;
84588;Laerm;74812;47.466;8.992;2024-02-15T05:16:15;48.70;44.47;61.42;;
84588;Laerm;74812;47.466;8.992;2024-02-15T05:18:41;49.72;45.11;63.64;;
84588;Laerm;74812;47.466;8.992;2024-02-15T05:21:06;50.25;45.60;60.99;;
84588;Laerm;74812;47.466;8.992;2024-02-15T05:23:38;50.20;46.45;57.73;;
84588;Laerm;74812;47.466;8.992;2024-02-15T05:26:05;49.22;45.23;60.33;;
84588;Laerm;74812;47.466;8.992;2024-02-15T05:28:31;49.60;45.60;56.88;;
84588;Laerm;74812;47.466;8.992;2024-02-15T05:31:12;50.19;45.94;58.93;;
84588;Laerm;74812;47.466;8.992;2024-02-15T05:33:42;49.08;44.80;61.69;;
84588;Laerm;74812;47.466;8.992;2024-02-15T05:36:12;50.05;45.48;62.34;;
84588;Laerm;74812;47.466;8.992;2024-02-15T05:38:38;50.91;45.66;64.87;;
84588;Laerm;74812;47.466;8.992;2024-02-15T05:41:03;51.55;45.66;63.44;;
84588;Laerm;74812;47.466;8.992;2024-02-15T05:43:28;50.72;46.07;62.15;;
84588;Laerm;74812;47.466;8.992;2024-02-15T05:45:54;50.28;45.39;63.88;;
84588;Laerm;74812;47.466;8.992;2024-02-15T05:48:19;50.67;45.99;61.73;;
84588;Laerm;74812;47.466;8.992;2024-02-15T05:50:46;51.72;47.30;58.82;;
84588;Laerm;74812;47.466;8.992;2024-02-15T05:53:12;51.70;47.44;58.10;;
84588;Laerm;74812;47.466;8.992;2024-02-15T05:55:37;50.82;45.75;65.14;;
84588;Laerm;74812;47.466;8.992;2024-02-15T05:58:05;49.63;45.54;59.38;;
84588;Laerm;74812;47.466;8.992;2024-02-15T06:00:31;50.01;45.30;60.61;;
84588;Laerm;74812;47.466;8.992;2024-02-15T06:02:56;50.39;44.90;63.77;;
84588;Laerm;74812;47.466;8.992;2024-02-15T06:05:21;53.44;45.48;75.68;;
84588;Laerm;74812;47.466;8.992;2024-02-15T06:07:51;51.85;46.05;69.69;;
84588;Laerm;74812;47.466;8.992;2024-02-15T06:10:16;50.51;45.99;58.92;;
84588;Laerm;74812;47.466;8.992;2024-02-15T06:12:42;58.54;46.45;85.62;;
84588;Laerm;74812;47.466;8.992;2024-02-15T06:15:08;50.40;45.45;60.80;;
84588;Laerm;74812;47.466;8.992;2024-02-15T06:17:40;48.34;45.01;56.74;;
84588;Laerm;74812;47.466;8.992;2024-02-15T06:20:05;48.71;44.83;53.85;;
84588;Laerm;74812;47.466;8.992;2024-02-15T06:22:31;49.67;45.17;69.53;;
84588;Laerm;74812;47.466;8.992;2024-02-15T06:24:56;51.43;45.83;60.74;;
84588;Laerm;74812;47.466;8.992;2024-02-15T06:27:21;49.44;45.69;53.70;;
84588;Laerm;74812;47.466;8.992;2024-02-15T06:29:49;50.64;46.13;60.27;;
84588;Laerm;74812;47.466;8.992;2024-02-15T06:32:33;49.92;45.27;60.42;;
84588;Laerm;74812;47.466;8.992;2024-02-15T06:35:17;49.77;44.97;63.13;;
84588;Laerm;74812;47.466;8.992;2024-02-15T06:38:00;50.73;45.30;70.05;;
84588;Laerm;74812;47.466;8.992;2024-02-15T06:40:44;50.50;45.65;65.71;;
84588;Laerm;74812;47.466;8.992;2024-02-15T06:43:10;56.22;45.48;74.78;;
84588;Laerm;74812;47.466;8.992;2024-02-15T06:45:35;52.23;45.97;75.99;;
84588;Laerm;74812;47.466;8.992;2024-02-15T06:48:02;50.28;46.05;59.20;;
84588;Laerm;74812;47.466;8.992;2024-02-15T06:50:27;50.75;46.30;68.87;;
84588;Laerm;74812;47.466;8.992;2024-02-15T06:52:53;50.52;45.89;61.66;;
84588;Laerm;74812;47.466;8.992;2024-02-15T06:55:20;51.15;45.14;62.30;;
84588;Laerm;74812;47.466;8.992;2024-02-15T06:57:47;50.40;45.77;58.18;;
84588;Laerm;74812;47.466;8.992;2024-02-15T07:00:12;49.74;45.39;60.47;;
84588;Laerm;74812;47.466;8.992;2024-02-15T07:02:40;52.28;46.79;72.41;;
84588;Laerm;74812;47.466;8.992;2024-02-15T07:05:06;51.02;46.38;57.85;;
84588;Laerm;74812;47.466;8.992;2024-02-15T07:07:31;50.14;46.10;60.44;;
84588;Laerm;74812;47.466;8.992;2024-02-15T07:09:57;49.88;45.39;60.03;;
84588;Laerm;74812;47.466;8.992;2024-02-15T07:12:22;49.87;45.63;65.52;;
84588;Laerm;74812;47.466;8.992;2024-02-15T07:14:48;51.43;45.07;65.63;;
84588;Laerm;74812;47.466;8.992;2024-02-15T07:17:13;50.09;45.04;63.87;;
84588;Laerm;74812;47.466;8.992;2024-02-15T07:19:45;48.61;44.69;62.83;;
84588;Laerm;74812;47.466;8.992;2024-02-15T07:22:17;48.31;44.07;58.23;;
84588;Laerm;74812;47.466;8.992;2024-02-15T07:24:42;48.51;44.23;62.43;;
84588;Laerm;74812;47.466;8.992;2024-02-15T07:27:07;47.25;44.11;55.67;;
84588;Laerm;74812;47.466;8.992;2024-02-15T07:29:34;48.71;44.69;59.95;;
84588;Laerm;74812;47.466;8.992;2024-02-15T07:32:02;50.02;44.94;62.76;;
84588;Laerm;74812;47.466;8.992;2024-02-15T07:34:29;49.42;43.68;68.54;;
84588;Laerm;74812;47.466;8.992;2024-02-15T07:36:55;47.54;43.44;64.97;;
84588;Laerm;74812;47.466;8.992;2024-02-15T07:39:22;51.29;44.23;71.09;;
84588;Laerm;74812;47.466;8.992;2024-02-15T07:41:56;49.16;43.90;62.02;;
84588;Laerm;74812;47.466;8.992;2024-02-15T07:44:23;47.45;43.29;59.53;;
84588;Laerm;74812;47.466;8.992;2024-02-15T07:46:49;46.64;43.77;54.88;;
84588;Laerm;74812;47.466;8.992;2024-02-15T07:49:15;48.30;43.94;60.26;;
84588;Laerm;74812;47.466;8.992;2024-02-15T07:51:42;47.86;43.72;61.57;;
84588;Laerm;74812;47.466;8.992;2024-02-15T07:54:08;48.93;43.44;62.84;;
84588;Laerm;74812;47.466;8.992;2024-02-15T07:56:34;52.95;44.23;63.78;;
84588;Laerm;74812;47.466;8.992;2024-02-15T07:59:00;54.56;45.83;67.30;;
84588;Laerm;74812;47.466;8.992;2024-02-15T08:01:25;48.63;43.14;64.10;;
84588;Laerm;74812;47.466;8.992;2024-02-15T08:03:51;45.74;42.93;56.05;;
84588;Laerm;74812;47.466;8.992;2024-02-15T08:06:17;47.68;43.54;59.81;;
84588;Laerm;74812;47.466;8.992;2024-02-15T08:08:44;48.48;43.44;63.65;;
84588;Laerm;74812;47.466;8.992;2024-02-15T08:11:12;46.12;43.19;57.28;;
84588;Laerm;74812;47.466;8.992;2024-02-15T08:13:42;56.50;42.35;74.87;;
84588;Laerm;74812;47.466;8.992;2024-02-15T08:16:08;52.21;42.41;80.10;;
84588;Laerm;74812;47.466;8.992;2024-02-15T08:18:33;46.98;41.82;72.27;;
84588;Laerm;74812;47.466;8.992;2024-02-15T08:21:00;46.33;42.29;63.01;;
84588;Laerm;74812;47.466;8.992;2024-02-15T08:23:26;46.44;42.93;59.31;;
84588;Laerm;74812;47.466;8.992;2024-02-15T08:25:52;47.82;42.09;62.84;;
84588;Laerm;74812;47.466;8.992;2024-02-15T08:28:18;48.82;42.09;60.00;;
84588;Laerm;74812;47.466;8.992;2024-02-15T08:30:45;47.40;42.82;63.06;;
84588;Laerm;74812;47.466;8.992;2024-02-15T08:33:12;45.30;42.22;56.29;;
84588;Laerm;74812;47.466;8.992;2024-02-15T08:35:37;44.73;41.46;59.41;;
84588;Laerm;74812;47.466;8.992;2024-02-15T08:38:03;46.88;42.09;61.59;;
84588;Laerm;74812;47.466;8.992;2024-02-15T08:40:30;44.75;41.61;55.03;;
84588;Laerm;74812;47.466;8.992;2024-02-15T08:42:55;45.42;41.61;53.72;;
84588;Laerm;74812;47.466;8.992;2024-02-15T08:45:21;46.49;41.53;60.45;;
84588;Laerm;74812;47.466;8.992;2024-02-15T08:47:46;44.21;41.55;52.63;;
84588;Laerm;74812;47.466;8.992;2024-02-15T08:50:14;44.62;41.38;54.78;;
84588;Laerm;74812;47.466;8.992;2024-02-15T08:52:40;44.98;42.22;55.37;;
84588;Laerm;74812;47.466;8.992;2024-02-15T08:55:09;45.65;41.68;58.01;;
84588;Laerm;74812;47.466;8.992;2024-02-15T08:57:38;45.34;41.89;57.84;;
84588;Laerm;74812;47.466;8.992;2024-02-15T09:00:06;48.30;41.38;64.61;;
84588;Laerm;74812;47.466;8.992;2024-02-15T09:02:47;44.92;40.43;59.87;;
84588;Laerm;74812;47.466;8.992;2024-02-15T09:05:14;46.02;41.53;56.73;;
84588;Laerm;74812;47.466;8.992;2024-02-15T09:07:43;44.00;40.62;51.94;;
84588;Laerm;74812;47.466;8.992;2024-02-15T09:10:09;49.39;41.68;70.02;;
84588;Laerm;74812;47.466;8.992;2024-02-15T09:12:35;46.58;41.46;60.16;;
84588;Laerm;74812;47.466;8.992;2024-02-15T09:15:03;48.16;41.22;62.74;;
84588;Laerm;74812;47.466;8.992;2024-02-15T09:17:28;46.67;42.16;64.92;;
84588;Laerm;74812;47.466;8.992;2024-02-15T09:19:56;44.08;41.61;52.90;;
84588;Laerm;74812;47.466;8.992;2024-02-15T09:22:22;45.98;41.46;57.78;;
84588;Laerm;74812;47.466;8.992;2024-02-15T09:24:47;45.01;41.68;55.97;;
84588;Laerm;74812;47.466;8.992;2024-02-15T09:27:12;45.61;41.30;58.14;;
84588;Laerm;74812;47.466;8.992;2024-02-15T09:29:38;45.95;40.62;66.43;;
84588;Laerm;74812;47.466;8.992;2024-02-15T09:32:05;45.73;41.68;58.45;;
84588;Laerm;74812;47.466;8.992;2024-02-15T09:34:30;44.02;40.80;55.82;;
84588;Laerm;74812;47.466;8.992;2024-02-15T09:36:55;48.58;40.89;57.34;;
84588;Laerm;74812;47.466;8.992;2024-02-15T09:39:21;46.21;42.06;56.99;;
84588;Laerm;74812;47.466;8.992;2024-02-15T09:41:48;46.81;40.62;76.14;;
84588;Laerm;74812;47.466;8.992;2024-02-15T09:44:19;43.71;40.80;54.94;;
84588;Laerm;74812;47.466;8.992;2024-02-15T09:46:44;46.57;40.33;61.74;;
84588;Laerm;74812;47.466;8.992;2024-02-15T09:49:11;46.38;40.23;59.54;;
84588;Laerm;74812;47.466;8.992;2024-02-15T09:51:36;44.43;40.71;59.18;;
84588;Laerm;74812;47.466;8.992;2024-02-15T09:54:02;49.86;41.48;65.82;;
84588;Laerm;74812;47.466;8.992;2024-02-15T09:56:30;45.47;40.62;60.23;;
84588;Laerm;74812;47.466;8.992;2024-02-15T09:58:55;45.91;41.53;61.01;;
84588;Laerm;74812;47.466;8.992;2024-02-15T10:01:22;46.20;40.98;61.87;;
84588;Laerm;74812;47.466;8.992;2024-02-15T10:03:51;49.78;44.20;58.70;;
84588;Laerm;74812;47.466;8.992;2024-02-15T10:06:17;49.27;40.23;62.25;;
84588;Laerm;74812;47.466;8.992;2024-02-15T10:08:43;45.35;41.75;64.36;;
84588;Laerm;74812;47.466;8.992;2024-02-15T10:11:09;50.41;41.89;62.34;;
84588;Laerm;74812;47.466;8.992;2024-02-15T10:13:35;50.27;41.30;60.07;;
84588;Laerm;74812;47.466;8.992;2024-02-15T10:16:16;45.97;40.33;57.64;;
84588;Laerm;74812;47.466;8.992;2024-02-15T10:18:42;52.00;41.96;65.76;;
84588;Laerm;74812;47.466;8.992;2024-02-15T10:21:08;51.75;42.22;66.30;;
84588;Laerm;74812;47.466;8.992;2024-02-15T10:23:33;51.89;42.53;67.65;;
84588;Laerm;74812;47.466;8.992;2024-02-15T10:25:59;50.65;42.29;61.79;;
84588;Laerm;74812;47.466;8.992;2024-02-15T10:28:26;47.24;42.59;58.55;;
84588;Laerm;74812;47.466;8.992;2024-02-15T10:30:53;50.22;42.93;61.36;;
84588;Laerm;74812;47.466;8.992;2024-02-15T10:35:45;45.15;41.38;55.43;;
84588;Laerm;74812;47.466;8.992;2024-02-15T10:38:10;44.50;41.22;62.29;;
84588;Laerm;74812;47.466;8.992;2024-02-15T10:40:36;45.99;41.22;56.94;;
84588;Laerm;74812;47.466;8.992;2024-02-15T10:43:05;44.17;40.13;55.92;;
84588;Laerm;74812;47.466;8.992;2024-02-15T10:45:31;46.10;40.98;60.25;;
84588;Laerm;74812;47.466;8.992;2024-02-15T10:47:56;46.14;41.22;62.93;;
84588;Laerm;74812;47.466;8.992;2024-02-15T10:50:23;45.23;41.30;60.01;;
84588;Laerm;74812;47.466;8.992;2024-02-15T10:52:54;47.67;41.26;66.40;;
84588;Laerm;74812;47.466;8.992;2024-02-15T10:58:05;45.52;41.75;57.82;;
84588;Laerm;74812;47.466;8.992;2024-02-15T11:00:32;50.21;42.29;70.08;;
84588;Laerm;74812;47.466;8.992;2024-02-15T11:03:02;54.36;42.53;69.69;;
84588;Laerm;74812;47.466;8.992;2024-02-15T11:05:29;45.92;41.89;58.73;;
84588;Laerm;74812;47.466;8.992;2024-02-15T11:07:58;43.85;40.71;52.31;;
84588;Laerm;74812;47.466;8.992;2024-02-15T11:10:23;46.27;41.53;57.64;;
84588;Laerm;74812;47.466;8.992;2024-02-15T11:12:50;44.42;40.33;56.32;;
84588;Laerm;74812;47.466;8.992;2024-02-15T11:17:59;43.92;40.03;58.35;;
84588;Laerm;74812;47.466;8.992;2024-02-15T11:23:00;45.74;39.46;69.45;;
84588;Laerm;74812;47.466;8.992;2024-02-15T11:25:38;43.54;40.13;55.98;;
84588;Laerm;74812;47.466;8.992;2024-02-15T11:30:55;46.51;39.46;57.28;;
84588;Laerm;74812;47.466;8.992;2024-02-15T11:33:27;49.77;40.23;78.32;;
84588;Laerm;74812;47.466;8.992;2024-02-15T11:38:31;46.66;39.58;58.70;;
84588;Laerm;74812;47.466;8.992;2024-02-15T11:46:19;45.46;40.43;63.69;;
84588;Laerm;74812;47.466;8.992;2024-02-15T11:48:48;43.86;40.03;56.67;;
84588;Laerm;74812;47.466;8.992;2024-02-15T11:51:30;44.82;40.62;54.72;;
84588;Laerm;74812;47.466;8.992;2024-02-15T11:54:08;45.95;40.62;57.62;;
84588;Laerm;74812;47.466;8.992;2024-02-15T11:59:16;45.87;40.43;59.30;;
84588;Laerm;74812;47.466;8.992;2024-02-15T12:01:56;45.90;41.53;58.32;;
84588;Laerm;74812;47.466;8.992;2024-02-15T12:04:40;45.92;41.22;63.58;;
84588;Laerm;74812;47.466;8.992;2024-02-15T12:07:24;45.32;40.43;65.29;;
84588;Laerm;74812;47.466;8.992;2024-02-15T12:10:15;45.18;40.62;57.66;;
84588;Laerm;74812;47.466;8.992;2024-02-15T12:12:59;45.59;41.06;59.34;;
84588;Laerm;74812;47.466;8.992;2024-02-15T12:15:55;48.34;40.80;62.73;;
84588;Laerm;74812;47.466;8.992;2024-02-15T12:18:39;43.61;40.13;54.25;;
84588;Laerm;74812;47.466;8.992;2024-02-15T12:21:07;52.65;40.43;76.65;;
84588;Laerm;74812;47.466;8.992;2024-02-15T12:23:35;44.34;40.62;55.42;;
84588;Laerm;74812;47.466;8.992;2024-02-15T12:26:01;45.59;40.23;57.34;;
84588;Laerm;74812;47.466;8.992;2024-02-15T12:28:28;45.20;40.53;63.85;;
84588;Laerm;74812;47.466;8.992;2024-02-15T12:30:54;45.07;41.14;58.25;;
84588;Laerm;74812;47.466;8.992;2024-02-15T12:33:20;46.91;41.22;61.07;;
84588;Laerm;74812;47.466;8.992;2024-02-15T12:35:46;43.71;41.38;50.16;;
84588;Laerm;74812;47.466;8.992;2024-02-15T12:38:12;44.94;40.03;54.82;;
84588;Laerm;74812;47.466;8.992;2024-02-15T12:40:40;50.47;42.76;72.81;;
84588;Laerm;74812;47.466;8.992;2024-02-15T12:43:06;44.38;40.33;67.94;;
84588;Laerm;74812;47.466;8.992;2024-02-15T12:45:37;47.71;41.38;61.61;;
84588;Laerm;74812;47.466;8.992;2024-02-15T12:48:03;47.66;40.53;68.57;;
84588;Laerm;74812;47.466;8.992;2024-02-15T12:50:29;43.54;40.62;56.58;;
84588;Laerm;74812;47.466;8.992;2024-02-15T12:52:55;43.73;40.98;52.24;;
84588;Laerm;74812;47.466;8.992;2024-02-15T12:55:21;43.66;40.80;53.04;;
84588;Laerm;74812;47.466;8.992;2024-02-15T12:57:47;43.71;40.89;57.09;;
84588;Laerm;74812;47.466;8.992;2024-02-15T13:00:17;43.98;41.06;54.29;;
84588;Laerm;74812;47.466;8.992;2024-02-15T13:02:46;45.58;40.13;61.42;;
84588;Laerm;74812;47.466;8.992;2024-02-15T13:05:14;43.80;40.80;57.16;;
84588;Laerm;74812;47.466;8.992;2024-02-15T13:07:39;44.22;40.53;59.51;;
84588;Laerm;74812;47.466;8.992;2024-02-15T13:10:05;44.29;40.71;53.45;;
84588;Laerm;74812;47.466;8.992;2024-02-15T13:12:35;43.91;41.06;51.63;;
84588;Laerm;74812;47.466;8.992;2024-02-15T13:15:01;44.15;40.03;54.80;;
84588;Laerm;74812;47.466;8.992;2024-02-15T13:17:29;44.86;40.33;58.09;;
84588;Laerm;74812;47.466;8.992;2024-02-15T13:19:54;44.88;40.62;60.58;;
84588;Laerm;74812;47.466;8.992;2024-02-15T13:22:27;43.51;40.23;58.72;;
84588;Laerm;74812;47.466;8.992;2024-02-15T13:24:52;43.82;40.89;53.46;;
84588;Laerm;74812;47.466;8.992;2024-02-15T13:27:20;43.63;40.23;53.50;;
84588;Laerm;74812;47.466;8.992;2024-02-15T13:29:46;45.01;40.33;67.35;;
84588;Laerm;74812;47.466;8.992;2024-02-15T13:32:12;47.55;40.43;72.01;;
84588;Laerm;74812;47.466;8.992;2024-02-15T13:34:39;43.31;40.33;49.64;;
84588;Laerm;74812;47.466;8.992;2024-02-15T13:37:05;44.85;40.79;58.40;;
84588;Laerm;74812;47.466;8.992;2024-02-15T13:39:30;46.17;40.89;61.76;;
84588;Laerm;74812;47.466;8.992;2024-02-15T13:41:59;43.99;39.70;57.51;;
84588;Laerm;74812;47.466;8.992;2024-02-15T13:44:25;43.47;40.23;50.86;;
84588;Laerm;74812;47.466;8.992;2024-02-15T13:46:50;48.03;41.46;73.74;;
84588;Laerm;74812;47.466;8.992;2024-02-15T13:49:15;44.21;40.53;67.31;;
84588;Laerm;74812;47.466;8.992;2024-02-15T13:51:42;45.21;41.38;57.18;;
84588;Laerm;74812;47.466;8.992;2024-02-15T13:54:07;44.93;41.61;53.92;;
84588;Laerm;74812;47.466;8.992;2024-02-15T13:56:33;45.76;40.80;56.41;;
84588;Laerm;74812;47.466;8.992;2024-02-15T13:58:58;45.77;41.38;67.74;;
84588;Laerm;74812;47.466;8.992;2024-02-15T14:01:24;44.17;41.30;57.82;;
84588;Laerm;74812;47.466;8.992;2024-02-15T14:03:50;43.84;41.06;58.67;;
84588;Laerm;74812;47.466;8.992;2024-02-15T14:06:17;46.59;41.30;61.27;;
84588;Laerm;74812;47.466;8.992;2024-02-15T14:08:42;47.78;41.82;65.01;;
84588;Laerm;74812;47.466;8.992;2024-02-15T14:11:08;47.05;41.38;60.83;;
84588;Laerm;74812;47.466;8.992;2024-02-15T14:13:34;44.25;41.14;57.09;;
84588;Laerm;74812;47.466;8.992;2024-02-15T14:16:00;46.83;41.22;59.80;;
84588;Laerm;74812;47.466;8.992;2024-02-15T14:18:26;48.50;41.14;73.16;;
84588;Laerm;74812;47.466;8.992;2024-02-15T14:20:53;45.55;40.80;66.59;;
84588;Laerm;74812;47.466;8.992;2024-02-15T14:23:18;48.12;42.03;71.98;;
84588;Laerm;74812;47.466;8.992;2024-02-15T14:25:44;46.13;40.89;64.58;;
84588;Laerm;74812;47.466;8.992;2024-02-15T14:28:09;47.35;41.30;69.72;;
84588;Laerm;74812;47.466;8.992;2024-02-15T14:30:35;46.38;40.71;59.12;;
84588;Laerm;74812;47.466;8.992;2024-02-15T14:33:19;50.04;40.71;65.26;;
84588;Laerm;74812;47.466;8.992;2024-02-15T14:35:45;46.72;40.98;60.43;;
84588;Laerm;74812;47.466;8.992;2024-02-15T14:38:11;47.63;41.53;68.96;;
84588;Laerm;74812;47.466;8.992;2024-02-15T14:43:02;45.83;41.06;66.27;;
84588;Laerm;74812;47.466;8.992;2024-02-15T14:45:29;45.81;41.68;64.01;;
84588;Laerm;74812;47.466;8.992;2024-02-15T14:47:56;50.28;41.14;70.47;;
84588;Laerm;74812;47.466;8.992;2024-02-15T14:50:21;46.76;41.30;67.33;;
84588;Laerm;74812;47.466;8.992;2024-02-15T14:52:48;46.17;41.30;61.79;;
84588;Laerm;74812;47.466;8.992;2024-02-15T14:55:14;47.13;41.61;68.05;;
84588;Laerm;74812;47.466;8.992;2024-02-15T14:57:39;46.40;42.16;60.25;;
84588;Laerm;74812;47.466;8.992;2024-02-15T15:00:06;48.83;42.93;68.01;;
84588;Laerm;74812;47.466;8.992;2024-02-15T15:02:39;50.99;43.24;62.03;;
84588;Laerm;74812;47.466;8.992;2024-02-15T15:05:06;50.48;43.54;60.58;;
84588;Laerm;74812;47.466;8.992;2024-02-15T15:07:50;47.47;42.29;65.67;;
84588;Laerm;74812;47.466;8.992;2024-02-15T15:10:34;46.80;41.53;70.79;;
84588;Laerm;74812;47.466;8.992;2024-02-15T15:13:18;49.66;42.22;73.58;;
84588;Laerm;74812;47.466;8.992;2024-02-15T15:15:44;53.84;41.46;74.44;;
84588;Laerm;74812;47.466;8.992;2024-02-15T15:18:11;45.89;42.29;55.45;;
84588;Laerm;74812;47.466;8.992;2024-02-15T15:20:36;46.49;42.16;57.93;;
84588;Laerm;74812;47.466;8.992;2024-02-15T15:23:02;53.47;42.09;72.94;;
84588;Laerm;74812;47.466;8.992;2024-02-15T15:25:30;48.93;42.09;72.24;;
84588;Laerm;74812;47.466;8.992;2024-02-15T15:27:55;46.23;42.09;59.82;;
84588;Laerm;74812;47.466;8.992;2024-02-15T15:30:23;44.65;42.29;53.43;;
84588;Laerm;74812;47.466;8.992;2024-02-15T15:32:49;45.67;41.53;54.29;;
84588;Laerm;74812;47.466;8.992;2024-02-15T15:35:18;46.46;42.71;65.86;;
84588;Laerm;74812;47.466;8.992;2024-02-15T15:37:46;45.09;41.89;54.86;;
84588;Laerm;74812;47.466;8.992;2024-02-15T15:40:12;46.75;42.35;61.43;;
84588;Laerm;74812;47.466;8.992;2024-02-15T15:42:39;46.40;42.09;58.49;;
84588;Laerm;74812;47.466;8.992;2024-02-15T15:45:04;46.53;42.76;57.30;;
84588;Laerm;74812;47.466;8.992;2024-02-15T15:47:30;46.92;43.19;55.67;;
84588;Laerm;74812;47.466;8.992;2024-02-15T15:49:56;46.42;42.93;56.23;;
84588;Laerm;74812;47.466;8.992;2024-02-15T15:52:23;46.81;43.14;63.24;;
84588;Laerm;74812;47.466;8.992;2024-02-15T15:54:49;48.42;42.47;64.24;;
84588;Laerm;74812;47.466;8.992;2024-02-15T15:57:15;46.45;42.65;64.54;;
84588;Laerm;74812;47.466;8.992;2024-02-15T15:59:40;45.74;42.71;58.27;;
84588;Laerm;74812;47.466;8.992;2024-02-15T16:02:05;45.53;42.09;57.70;;
84588;Laerm;74812;47.466;8.992;2024-02-15T16:04:31;45.81;42.71;52.53;;
84588;Laerm;74812;47.466;8.992;2024-02-15T16:06:56;45.32;41.96;52.85;;
84588;Laerm;74812;47.466;8.992;2024-02-15T16:09:21;46.18;42.71;56.76;;
84588;Laerm;74812;47.466;8.992;2024-02-15T16:11:48;47.13;42.47;60.67;;
84588;Laerm;74812;47.466;8.992;2024-02-15T16:14:14;46.17;42.65;58.05;;
84588;Laerm;74812;47.466;8.992;2024-02-15T16:16:43;45.63;41.89;55.18;;
84588;Laerm;74812;47.466;8.992;2024-02-15T16:19:09;44.61;42.03;58.13;;
84588;Laerm;74812;47.466;8.992;2024-02-15T16:21:34;44.87;42.03;57.04;;
84588;Laerm;74812;47.466;8.992;2024-02-15T16:24:00;44.93;42.35;54.59;;
84588;Laerm;74812;47.466;8.992;2024-02-15T16:26:25;46.48;41.96;58.94;;
84588;Laerm;74812;47.466;8.992;2024-02-15T16:28:51;46.22;42.29;56.19;;
84588;Laerm;74812;47.466;8.992;2024-02-15T16:31:16;46.25;42.16;58.24;;
84588;Laerm;74812;47.466;8.992;2024-02-15T16:33:42;46.78;42.41;63.03;;
84588;Laerm;74812;47.466;8.992;2024-02-15T16:36:07;46.16;42.03;60.10;;
84588;Laerm;74812;47.466;8.992;2024-02-15T16:38:33;48.02;42.09;63.46;;
84588;Laerm;74812;47.466;8.992;2024-02-15T16:41:04;45.91;42.22;58.78;;
84588;Laerm;74812;47.466;8.992;2024-02-15T16:43:29;47.21;42.41;68.35;;
84588;Laerm;74812;47.466;8.992;2024-02-15T16:45:55;46.38;42.41;59.71;;
84588;Laerm;74812;47.466;8.992;2024-02-15T16:48:21;47.00;41.82;57.19;;
84588;Laerm;74812;47.466;8.992;2024-02-15T16:50:46;45.29;41.96;52.64;;
84588;Laerm;74812;47.466;8.992;2024-02-15T16:53:12;48.13;41.89;65.67;;
84588;Laerm;74812;47.466;8.992;2024-02-15T16:55:42;45.02;41.96;56.10;;
84588;Laerm;74812;47.466;8.992;2024-02-15T16:58:08;45.51;42.93;57.21;;
84588;Laerm;74812;47.466;8.992;2024-02-15T17:00:35;46.63;42.16;56.89;;
84588;Laerm;74812;47.466;8.992;2024-02-15T17:03:01;50.24;42.13;66.88;;
84588;Laerm;74812;47.466;8.992;2024-02-15T17:05:27;58.12;43.81;73.62;;
84588;Laerm;74812;47.466;8.992;2024-02-15T17:07:53;51.34;42.76;70.14;;
84588;Laerm;74812;47.466;8.992;2024-02-15T17:10:21;51.21;42.29;68.44;;
84588;Laerm;74812;47.466;8.992;2024-02-15T17:12:47;51.38;42.41;70.03;;
84588;Laerm;74812;47.466;8.992;2024-02-15T17:15:12;49.97;42.16;64.17;;
84588;Laerm;74812;47.466;8.992;2024-02-15T17:17:38;46.96;42.82;58.01;;
84588;Laerm;74812;47.466;8.992;2024-02-15T17:20:04;49.39;42.71;68.21;;
84588;Laerm;74812;47.466;8.992;2024-02-15T17:22:42;47.75;43.04;65.34;;
84588;Laerm;74812;47.466;8.992;2024-02-15T17:25:07;48.01;43.90;61.82;;
84588;Laerm;74812;47.466;8.992;2024-02-15T17:27:33;47.75;42.59;69.54;;
84588;Laerm;74812;47.466;8.992;2024-02-15T17:30:01;46.07;42.69;65.33;;
84588;Laerm;74812;47.466;8.992;2024-02-15T17:32:26;48.37;42.98;59.52;;
84588;Laerm;74812;47.466;8.992;2024-02-15T17:34:51;46.35;43.63;52.46;;
84588;Laerm;74812;47.466;8.992;2024-02-15T17:37:17;46.61;43.14;63.73;;
84588;Laerm;74812;47.466;8.992;2024-02-15T17:39:42;46.51;42.98;55.00;;
84588;Laerm;74812;47.466;8.992;2024-02-15T17:42:08;46.94;43.19;53.82;;
84588;Laerm;74812;47.466;8.992;2024-02-15T17:44:34;48.56;42.71;58.09;;
84588;Laerm;74812;47.466;8.992;2024-02-15T17:46:59;46.60;43.14;56.67;;
84588;Laerm;74812;47.466;8.992;2024-02-15T17:49:25;46.78;43.54;53.16;;
84588;Laerm;74812;47.466;8.992;2024-02-15T17:51:51;50.87;44.19;59.89;;
84588;Laerm;74812;47.466;8.992;2024-02-15T17:54:16;45.93;43.09;53.80;;
84588;Laerm;74812;47.466;8.992;2024-02-15T17:56:41;49.22;43.54;59.12;;